sensor_id;sensor_type;location;lat;lon;timestamp;pressure;altitude;pressure_sealevel;temperature;humidity
36192;BME280;22233;42.708;23.360;2023-07-13T00:00:27;95676.28;;;26.25;52.55
36192;BME280;22233;42.708;23.360;2023-07-13T00:02:53;95672.38;;;26.19;52.71
36192;BME280;22233;42.708;23.360;2023-07-13T00:05:20;95675.53;;;26.18;53.18
36192;BME280;22233;42.708;23.360;2023-07-13T00:07:45;95662.94;;;26.06;53.44
36192;BME280;22233;42.708;23.360;2023-07-13T00:10:11;95665.34;;;26.00;53.82
36192;BME280;22233;42.708;23.360;2023-07-13T00:12:38;95677.25;;;26.01;53.98
36192;BME280;22233;42.708;23.360;2023-07-13T00:15:11;95674.09;;;25.99;54.32
36192;BME280;22233;42.708;23.360;2023-07-13T00:17:37;95664.72;;;25.64;55.24
36192;BME280;22233;42.708;23.360;2023-07-13T00:20:05;95666.38;;;25.50;56.09
36192;BME280;22233;42.708;23.360;2023-07-13T00:22:30;95664.03;;;25.38;56.93
36192;BME280;22233;42.708;23.360;2023-07-13T00:24:56;95649.41;;;25.12;57.83
36192;BME280;22233;42.708;23.360;2023-07-13T00:27:22;95664.13;;;25.02;58.89
36192;BME280;22233;42.708;23.360;2023-07-13T00:29:47;95649.84;;;25.00;59.16
36192;BME280;22233;42.708;23.360;2023-07-13T00:32:13;95666.13;;;25.05;59.63
36192;BME280;22233;42.708;23.360;2023-07-13T00:34:38;95649.50;;;24.73;60.50
36192;BME280;22233;42.708;23.360;2023-07-13T00:37:05;95645.53;;;24.81;60.33
36192;BME280;22233;42.708;23.360;2023-07-13T00:39:32;95661.00;;;24.89;60.13
36192;BME280;22233;42.708;23.360;2023-07-13T00:41:58;95658.22;;;24.89;60.21
36192;BME280;22233;42.708;23.360;2023-07-13T00:44:24;95667.34;;;24.90;60.29
36192;BME280;22233;42.708;23.360;2023-07-13T00:46:50;95664.94;;;24.99;60.38
36192;BME280;22233;42.708;23.360;2023-07-13T00:49:19;95653.47;;;24.79;60.61
36192;BME280;22233;42.708;23.360;2023-07-13T00:51:51;95656.63;;;24.74;60.73
36192;BME280;22233;42.708;23.360;2023-07-13T00:54:21;95659.84;;;24.65;60.71
36192;BME280;22233;42.708;23.360;2023-07-13T00:56:50;95642.78;;;24.63;61.03
36192;BME280;22233;42.708;23.360;2023-07-13T00:59:18;95634.84;;;24.69;60.68
36192;BME280;22233;42.708;23.360;2023-07-13T01:01:45;95644.34;;;24.61;60.98
36192;BME280;22233;42.708;23.360;2023-07-13T01:04:11;95631.66;;;24.56;60.92
36192;BME280;22233;42.708;23.360;2023-07-13T01:06:37;95647.94;;;24.58;61.17
36192;BME280;22233;42.708;23.360;2023-07-13T01:09:04;95653.50;;;24.61;60.91
36192;BME280;22233;42.708;23.360;2023-07-13T01:11:31;95651.53;;;24.51;61.37
36192;BME280;22233;42.708;23.360;2023-07-13T01:13:56;95647.53;;;24.59;61.55
36192;BME280;22233;42.708;23.360;2023-07-13T01:16:27;95646.72;;;24.59;61.68
36192;BME280;22233;42.708;23.360;2023-07-13T01:18:54;95629.28;;;24.55;61.53
36192;BME280;22233;42.708;23.360;2023-07-13T01:21:23;95654.66;;;24.57;62.21
36192;BME280;22233;42.708;23.360;2023-07-13T01:23:49;95649.13;;;24.35;62.72
36192;BME280;22233;42.708;23.360;2023-07-13T01:26:14;95644.34;;;24.25;63.08
36192;BME280;22233;42.708;23.360;2023-07-13T01:28:39;95647.91;;;24.25;63.24
36192;BME280;22233;42.708;23.360;2023-07-13T01:31:05;95650.69;;;24.25;63.33
36192;BME280;22233;42.708;23.360;2023-07-13T01:33:30;95645.94;;;24.26;63.50
36192;BME280;22233;42.708;23.360;2023-07-13T01:35:56;95627.69;;;24.14;63.59
36192;BME280;22233;42.708;23.360;2023-07-13T01:38:25;95641.16;;;24.12;64.06
36192;BME280;22233;42.708;23.360;2023-07-13T01:40:51;95641.56;;;24.00;64.31
36192;BME280;22233;42.708;23.360;2023-07-13T01:43:17;95650.66;;;24.04;64.22
36192;BME280;22233;42.708;23.360;2023-07-13T01:45:44;95637.59;;;23.93;64.59
36192;BME280;22233;42.708;23.360;2023-07-13T01:48:10;95623.31;;;23.88;64.53
36192;BME280;22233;42.708;23.360;2023-07-13T01:50:36;95647.50;;;24.05;64.18
36192;BME280;22233;42.708;23.360;2023-07-13T01:53:02;95632.84;;;23.90;64.28
36192;BME280;22233;42.708;23.360;2023-07-13T01:57:53;95613.34;;;23.69;64.77
36192;BME280;22233;42.708;23.360;2023-07-13T02:00:19;95631.25;;;23.89;63.95
36192;BME280;22233;42.708;23.360;2023-07-13T02:02:44;95643.53;;;24.06;63.64
36192;BME280;22233;42.708;23.360;2023-07-13T02:05:11;95626.06;;;23.84;63.03
36192;BME280;22233;42.708;23.360;2023-07-13T02:07:37;95645.88;;;23.86;63.37
36192;BME280;22233;42.708;23.360;2023-07-13T02:10:02;95657.38;;;23.81;63.43
36192;BME280;22233;42.708;23.360;2023-07-13T02:12:28;95645.44;;;23.73;63.44
36192;BME280;22233;42.708;23.360;2023-07-13T02:14:53;95644.28;;;23.75;63.40
36192;BME280;22233;42.708;23.360;2023-07-13T02:17:19;95648.53;;;23.47;64.80
36192;BME280;22233;42.708;23.360;2023-07-13T02:19:44;95637.00;;;23.34;64.74
36192;BME280;22233;42.708;23.360;2023-07-13T02:22:09;95656.44;;;23.41;65.31
36192;BME280;22233;42.708;23.360;2023-07-13T02:24:35;95655.66;;;23.44;65.03
36192;BME280;22233;42.708;23.360;2023-07-13T02:27:00;95655.09;;;23.10;65.95
36192;BME280;22233;42.708;23.360;2023-07-13T02:29:26;95665.56;;;23.38;65.45
36192;BME280;22233;42.708;23.360;2023-07-13T02:31:51;95651.66;;;23.31;65.19
36192;BME280;22233;42.708;23.360;2023-07-13T02:34:16;95659.19;;;23.30;64.58
36192;BME280;22233;42.708;23.360;2023-07-13T02:36:42;95659.94;;;23.20;65.16
36192;BME280;22233;42.708;23.360;2023-07-13T02:39:08;95663.88;;;23.19;65.04
36192;BME280;22233;42.708;23.360;2023-07-13T02:41:34;95660.31;;;23.26;64.59
36192;BME280;22233;42.708;23.360;2023-07-13T02:43:59;95651.19;;;23.15;64.99
36192;BME280;22233;42.708;23.360;2023-07-13T02:46:32;95661.22;;;23.44;64.63
36192;BME280;22233;42.708;23.360;2023-07-13T02:48:57;95663.13;;;23.29;65.07
36192;BME280;22233;42.708;23.360;2023-07-13T02:51:23;95660.00;;;23.38;64.36
36192;BME280;22233;42.708;23.360;2023-07-13T02:53:48;95669.50;;;23.41;64.35
36192;BME280;22233;42.708;23.360;2023-07-13T02:56:14;95666.34;;;23.39;63.86
36192;BME280;22233;42.708;23.360;2023-07-13T02:58:39;95656.78;;;23.29;63.92
36192;BME280;22233;42.708;23.360;2023-07-13T03:01:09;95663.50;;;23.24;64.06
36192;BME280;22233;42.708;23.360;2023-07-13T03:03:35;95648.03;;;23.20;64.32
36192;BME280;22233;42.708;23.360;2023-07-13T03:06:03;95662.34;;;23.36;64.28
36192;BME280;22233;42.708;23.360;2023-07-13T03:08:30;95665.94;;;23.37;63.74
36192;BME280;22233;42.708;23.360;2023-07-13T03:11:03;95677.72;;;23.12;64.44
36192;BME280;22233;42.708;23.360;2023-07-13T03:13:28;95678.47;;;23.09;65.03
36192;BME280;22233;42.708;23.360;2023-07-13T03:15:54;95680.84;;;23.07;64.69
36192;BME280;22233;42.708;23.360;2023-07-13T03:18:19;95660.56;;;22.99;64.47
36192;BME280;22233;42.708;23.360;2023-07-13T03:20:45;95668.44;;;22.90;65.51
36192;BME280;22233;42.708;23.360;2023-07-13T03:23:10;95667.63;;;22.89;65.36
36192;BME280;22233;42.708;23.360;2023-07-13T03:25:36;95666.84;;;22.89;65.38
36192;BME280;22233;42.708;23.360;2023-07-13T03:28:01;95661.34;;;22.92;65.23
36192;BME280;22233;42.708;23.360;2023-07-13T03:30:27;95678.84;;;23.07;64.72
36192;BME280;22233;42.708;23.360;2023-07-13T03:32:52;95689.44;;;22.94;65.30
36192;BME280;22233;42.708;23.360;2023-07-13T03:35:17;95674.00;;;22.90;64.97
36192;BME280;22233;42.708;23.360;2023-07-13T03:37:43;95693.00;;;22.95;65.30
36192;BME280;22233;42.708;23.360;2023-07-13T03:40:09;95683.41;;;22.82;65.31
36192;BME280;22233;42.708;23.360;2023-07-13T03:42:35;95666.97;;;22.51;66.24
36192;BME280;22233;42.708;23.360;2023-07-13T03:45:00;95685.78;;;22.80;65.90
36192;BME280;22233;42.708;23.360;2023-07-13T03:47:26;95677.16;;;22.92;65.28
36192;BME280;22233;42.708;23.360;2023-07-13T03:49:51;95685.69;;;22.65;66.16
36192;BME280;22233;42.708;23.360;2023-07-13T03:52:17;95678.34;;;22.39;66.81
36192;BME280;22233;42.708;23.360;2023-07-13T03:54:42;95683.16;;;22.42;66.61
36192;BME280;22233;42.708;23.360;2023-07-13T03:57:08;95683.34;;;22.71;65.63
36192;BME280;22233;42.708;23.360;2023-07-13T03:59:33;95686.25;;;22.89;65.55
36192;BME280;22233;42.708;23.360;2023-07-13T04:01:59;95670.06;;;22.94;64.85
36192;BME280;22233;42.708;23.360;2023-07-13T04:04:24;95686.66;;;22.91;65.43
36192;BME280;22233;42.708;23.360;2023-07-13T04:06:50;95680.03;;;23.03;65.00
36192;BME280;22233;42.708;23.360;2023-07-13T04:09:18;95678.91;;;23.18;64.71
36192;BME280;22233;42.708;23.360;2023-07-13T04:11:44;95676.19;;;23.29;64.46
36192;BME280;22233;42.708;23.360;2023-07-13T04:14:10;95667.84;;;23.25;64.54
36192;BME280;22233;42.708;23.360;2023-07-13T04:16:35;95665.50;;;23.27;64.71
36192;BME280;22233;42.708;23.360;2023-07-13T04:19:01;95683.72;;;23.36;64.12
36192;BME280;22233;42.708;23.360;2023-07-13T04:21:28;95691.66;;;23.33;64.45
36192;BME280;22233;42.708;23.360;2023-07-13T04:23:54;95680.22;;;23.49;63.97
36192;BME280;22233;42.708;23.360;2023-07-13T04:26:19;95669.91;;;23.39;63.70
36192;BME280;22233;42.708;23.360;2023-07-13T04:28:49;95683.00;;;23.49;64.13
36192;BME280;22233;42.708;23.360;2023-07-13T04:31:15;95679.03;;;23.47;63.58
36192;BME280;22233;42.708;23.360;2023-07-13T04:33:40;95689.78;;;23.63;63.69
36192;BME280;22233;42.708;23.360;2023-07-13T04:36:06;95703.75;;;23.81;63.41
36192;BME280;22233;42.708;23.360;2023-07-13T04:38:35;95681.50;;;23.66;63.16
36192;BME280;22233;42.708;23.360;2023-07-13T04:41:05;95702.19;;;23.90;63.01
36192;BME280;22233;42.708;23.360;2023-07-13T04:43:32;95701.75;;;23.88;63.66
36192;BME280;22233;42.708;23.360;2023-07-13T04:46:03;95698.63;;;23.93;63.76
36192;BME280;22233;42.708;23.360;2023-07-13T04:48:29;95707.63;;;23.65;64.40
36192;BME280;22233;42.708;23.360;2023-07-13T04:50:56;95695.00;;;23.82;64.04
36192;BME280;22233;42.708;23.360;2023-07-13T04:53:22;95699.81;;;23.96;63.17
36192;BME280;22233;42.708;23.360;2023-07-13T04:55:48;95706.56;;;24.02;62.92
36192;BME280;22233;42.708;23.360;2023-07-13T04:58:13;95724.41;;;24.05;62.76
36192;BME280;22233;42.708;23.360;2023-07-13T05:00:39;95715.69;;;24.06;62.97
36192;BME280;22233;42.708;23.360;2023-07-13T05:03:05;95708.50;;;23.87;63.07
36192;BME280;22233;42.708;23.360;2023-07-13T05:05:30;95722.38;;;23.84;63.03
36192;BME280;22233;42.708;23.360;2023-07-13T05:07:56;95700.84;;;23.56;63.19
36192;BME280;22233;42.708;23.360;2023-07-13T05:10:22;95720.88;;;23.24;64.37
36192;BME280;22233;42.708;23.360;2023-07-13T05:12:48;95717.88;;;23.58;63.77
36192;BME280;22233;42.708;23.360;2023-07-13T05:15:14;95720.22;;;23.52;63.79
36192;BME280;22233;42.708;23.360;2023-07-13T05:17:39;95725.81;;;23.59;63.58
36192;BME280;22233;42.708;23.360;2023-07-13T05:20:07;95710.41;;;23.76;63.15
36192;BME280;22233;42.708;23.360;2023-07-13T05:22:32;95714.81;;;23.84;62.88
36192;BME280;22233;42.708;23.360;2023-07-13T05:25:00;95717.28;;;23.97;62.47
36192;BME280;22233;42.708;23.360;2023-07-13T05:27:25;95708.16;;;24.03;62.41
36192;BME280;22233;42.708;23.360;2023-07-13T05:29:50;95715.72;;;24.24;62.04
36192;BME280;22233;42.708;23.360;2023-07-13T05:32:17;95727.63;;;24.32;61.22
36192;BME280;22233;42.708;23.360;2023-07-13T05:34:42;95726.06;;;24.31;61.50
36192;BME280;22233;42.708;23.360;2023-07-13T05:37:09;95715.31;;;24.37;61.02
36192;BME280;22233;42.708;23.360;2023-07-13T05:39:35;95733.22;;;24.43;61.22
36192;BME280;22233;42.708;23.360;2023-07-13T05:42:02;95734.00;;;24.65;60.88
36192;BME280;22233;42.708;23.360;2023-07-13T05:44:27;95741.97;;;24.91;60.07
36192;BME280;22233;42.708;23.360;2023-07-13T05:46:53;95731.22;;;25.08;59.19
36192;BME280;22233;42.708;23.360;2023-07-13T05:49:20;95732.38;;;25.18;59.24
36192;BME280;22233;42.708;23.360;2023-07-13T05:51:45;95737.94;;;25.36;58.37
36192;BME280;22233;42.708;23.360;2023-07-13T05:54:10;95726.78;;;25.43;57.88
36192;BME280;22233;42.708;23.360;2023-07-13T05:56:36;95732.34;;;25.50;57.75
36192;BME280;22233;42.708;23.360;2023-07-13T05:59:01;95727.94;;;25.56;57.26
36192;BME280;22233;42.708;23.360;2023-07-13T06:01:27;95718.69;;;25.84;56.43
36192;BME280;22233;42.708;23.360;2023-07-13T06:03:52;95714.75;;;25.75;57.61
36192;BME280;22233;42.708;23.360;2023-07-13T06:06:17;95723.03;;;25.93;57.22
36192;BME280;22233;42.708;23.360;2023-07-13T06:08:43;95720.13;;;26.14;56.40
36192;BME280;22233;42.708;23.360;2023-07-13T06:11:17;95712.84;;;26.35;56.46
36192;BME280;22233;42.708;23.360;2023-07-13T06:13:43;95726.03;;;26.23;55.39
36192;BME280;22233;42.708;23.360;2023-07-13T06:16:09;95740.00;;;26.16;57.18
36192;BME280;22233;42.708;23.360;2023-07-13T06:18:36;95715.16;;;26.40;56.66
36192;BME280;22233;42.708;23.360;2023-07-13T06:21:34;95727.59;;;26.84;55.30
36192;BME280;22233;42.708;23.360;2023-07-13T06:23:59;95714.84;;;26.86;55.58
36192;BME280;22233;42.708;23.360;2023-07-13T06:26:25;95728.69;;;26.94;54.89
36192;BME280;22233;42.708;23.360;2023-07-13T06:28:50;95718.25;;;27.05;53.89
36192;BME280;22233;42.708;23.360;2023-07-13T06:31:16;95724.13;;;27.14;54.04
36192;BME280;22233;42.708;23.360;2023-07-13T06:33:41;95716.56;;;27.15;52.22
36192;BME280;22233;42.708;23.360;2023-07-13T06:36:08;95727.28;;;27.16;53.20
36192;BME280;22233;42.708;23.360;2023-07-13T06:38:33;95703.22;;;27.37;52.54
36192;BME280;22233;42.708;23.360;2023-07-13T06:40:59;95726.16;;;27.52;52.27
36192;BME280;22233;42.708;23.360;2023-07-13T06:43:24;95711.72;;;27.57;51.97
36192;BME280;22233;42.708;23.360;2023-07-13T06:45:50;95714.94;;;27.89;50.20
36192;BME280;22233;42.708;23.360;2023-07-13T06:48:17;95704.34;;;27.74;50.39
36192;BME280;22233;42.708;23.360;2023-07-13T06:50:43;95718.28;;;27.43;51.19
36192;BME280;22233;42.708;23.360;2023-07-13T06:53:10;95711.63;;;27.67;50.23
36192;BME280;22233;42.708;23.360;2023-07-13T06:55:35;95713.22;;;27.99;49.60
36192;BME280;22233;42.708;23.360;2023-07-13T06:58:01;95717.47;;;28.11;49.62
36192;BME280;22233;42.708;23.360;2023-07-13T07:00:26;95711.38;;;28.16;50.32
36192;BME280;22233;42.708;23.360;2023-07-13T07:02:51;95717.31;;;28.22;48.13
36192;BME280;22233;42.708;23.360;2023-07-13T07:05:17;95716.88;;;28.23;47.60
36192;BME280;22233;42.708;23.360;2023-07-13T07:07:42;95707.22;;;28.28;48.17
36192;BME280;22233;42.708;23.360;2023-07-13T07:10:08;95704.13;;;28.49;48.34
36192;BME280;22233;42.708;23.360;2023-07-13T07:12:33;95712.72;;;28.62;48.87
36192;BME280;22233;42.708;23.360;2023-07-13T07:14:59;95706.66;;;28.67;49.17
36192;BME280;22233;42.708;23.360;2023-07-13T07:17:24;95705.31;;;28.76;49.05
36192;BME280;22233;42.708;23.360;2023-07-13T07:19:51;95689.84;;;28.44;49.58
36192;BME280;22233;42.708;23.360;2023-07-13T07:22:19;95704.50;;;28.75;48.48
36192;BME280;22233;42.708;23.360;2023-07-13T07:24:44;95700.72;;;28.65;46.95
36192;BME280;22233;42.708;23.360;2023-07-13T07:27:10;95711.56;;;28.83;46.99
36192;BME280;22233;42.708;23.360;2023-07-13T07:29:35;95711.13;;;29.08;46.66
36192;BME280;22233;42.708;23.360;2023-07-13T07:32:00;95698.88;;;29.02;47.44
36192;BME280;22233;42.708;23.360;2023-07-13T07:34:26;95700.66;;;29.16;46.69
36192;BME280;22233;42.708;23.360;2023-07-13T07:36:52;95699.88;;;29.16;45.78
36192;BME280;22233;42.708;23.360;2023-07-13T07:39:18;95702.66;;;29.36;45.18
36192;BME280;22233;42.708;23.360;2023-07-13T07:41:44;95689.09;;;29.14;46.07
36192;BME280;22233;42.708;23.360;2023-07-13T07:44:10;95687.75;;;29.22;45.75
36192;BME280;22233;42.708;23.360;2023-07-13T07:46:35;95694.13;;;29.43;45.61
36192;BME280;22233;42.708;23.360;2023-07-13T07:49:00;95677.41;;;29.39;45.20
36192;BME280;22233;42.708;23.360;2023-07-13T07:51:26;95690.00;;;29.71;45.38
36192;BME280;22233;42.708;23.360;2023-07-13T07:53:51;95672.41;;;29.91;44.16
36192;BME280;22233;42.708;23.360;2023-07-13T07:56:17;95679.06;;;29.97;44.49
36192;BME280;22233;42.708;23.360;2023-07-13T07:58:43;95665.75;;;30.01;44.55
36192;BME280;22233;42.708;23.360;2023-07-13T08:01:09;95680.22;;;30.16;44.56
36192;BME280;22233;42.708;23.360;2023-07-13T08:03:35;95670.41;;;30.07;44.49
36192;BME280;22233;42.708;23.360;2023-07-13T08:06:00;95655.91;;;30.13;43.80
36192;BME280;22233;42.708;23.360;2023-07-13T08:08:25;95669.91;;;30.13;44.50
36192;BME280;22233;42.708;23.360;2023-07-13T08:10:51;95673.28;;;30.40;44.37
36192;BME280;22233;42.708;23.360;2023-07-13T08:13:17;95652.53;;;30.01;43.90
36192;BME280;22233;42.708;23.360;2023-07-13T08:15:42;95654.78;;;30.26;44.31
36192;BME280;22233;42.708;23.360;2023-07-13T08:18:08;95655.31;;;30.54;43.49
36192;BME280;22233;42.708;23.360;2023-07-13T08:20:39;95656.38;;;30.60;43.49
36192;BME280;22233;42.708;23.360;2023-07-13T08:23:05;95656.19;;;30.67;43.42
36192;BME280;22233;42.708;23.360;2023-07-13T08:25:31;95651.34;;;30.84;42.39
36192;BME280;22233;42.708;23.360;2023-07-13T08:27:57;95646.13;;;31.03;42.94
36192;BME280;22233;42.708;23.360;2023-07-13T08:30:22;95648.13;;;30.86;42.39
36192;BME280;22233;42.708;23.360;2023-07-13T08:32:48;95648.88;;;31.19;41.96
36192;BME280;22233;42.708;23.360;2023-07-13T08:35:14;95637.84;;;31.41;41.11
36192;BME280;22233;42.708;23.360;2023-07-13T08:37:41;95629.91;;;31.53;41.25
36192;BME280;22233;42.708;23.360;2023-07-13T08:40:09;95633.53;;;31.53;42.04
36192;BME280;22233;42.708;23.360;2023-07-13T08:42:54;95631.19;;;31.77;40.96
36192;BME280;22233;42.708;23.360;2023-07-13T08:45:24;95636.25;;;31.70;41.64
36192;BME280;22233;42.708;23.360;2023-07-13T08:48:05;95626.59;;;31.96;40.19
36192;BME280;22233;42.708;23.360;2023-07-13T08:50:46;95638.88;;;32.15;40.89
36192;BME280;22233;42.708;23.360;2023-07-13T08:53:14;95636.53;;;32.27;41.28
36192;BME280;22233;42.708;23.360;2023-07-13T08:55:40;95632.03;;;32.42;40.51
36192;BME280;22233;42.708;23.360;2023-07-13T08:58:11;95636.84;;;32.54;39.44
36192;BME280;22233;42.708;23.360;2023-07-13T09:04:10;95661.31;;;32.92;40.16
36192;BME280;22233;42.708;23.360;2023-07-13T09:15:02;95665.38;;;33.26;40.06
36192;BME280;22233;42.708;23.360;2023-07-13T09:17:37;95666.50;;;33.29;40.14
36192;BME280;22233;42.708;23.360;2023-07-13T09:22:40;95640.78;;;33.39;39.08
36192;BME280;22233;42.708;23.360;2023-07-13T09:25:30;95660.91;;;33.73;39.30
36192;BME280;22233;42.708;23.360;2023-07-13T09:28:20;95666.75;;;33.21;39.24
36192;BME280;22233;42.708;23.360;2023-07-13T09:31:05;95661.66;;;33.51;39.65
36192;BME280;22233;42.708;23.360;2023-07-13T09:33:31;95654.75;;;33.96;39.73
36192;BME280;22233;42.708;23.360;2023-07-13T09:35:58;95653.44;;;34.10;39.10
36192;BME280;22233;42.708;23.360;2023-07-13T09:38:25;95657.63;;;34.28;37.92
36192;BME280;22233;42.708;23.360;2023-07-13T09:41:15;95642.34;;;34.47;36.80
36192;BME280;22233;42.708;23.360;2023-07-13T09:44:13;95652.22;;;34.61;37.13
36192;BME280;22233;42.708;23.360;2023-07-13T09:46:44;95642.41;;;34.75;36.44
36192;BME280;22233;42.708;23.360;2023-07-13T09:49:11;95635.06;;;34.87;37.41
36192;BME280;22233;42.708;23.360;2023-07-13T09:51:43;95625.06;;;34.86;36.82
36192;BME280;22233;42.708;23.360;2023-07-13T09:54:24;95620.22;;;35.23;36.49
36192;BME280;22233;42.708;23.360;2023-07-13T09:56:58;95622.13;;;35.26;37.14
36192;BME280;22233;42.708;23.360;2023-07-13T09:59:28;95612.22;;;35.40;36.93
36192;BME280;22233;42.708;23.360;2023-07-13T10:01:54;95619.56;;;35.56;35.55
36192;BME280;22233;42.708;23.360;2023-07-13T10:04:35;95617.97;;;34.72;34.63
36192;BME280;22233;42.708;23.360;2023-07-13T10:07:12;95618.19;;;35.24;35.48
36192;BME280;22233;42.708;23.360;2023-07-13T10:09:40;95608.91;;;35.41;35.87
36192;BME280;22233;42.708;23.360;2023-07-13T10:12:15;95591.78;;;35.45;35.16
36192;BME280;22233;42.708;23.360;2023-07-13T10:14:42;95589.72;;;35.73;35.33
36192;BME280;22233;42.708;23.360;2023-07-13T10:17:11;95602.25;;;35.82;34.63
36192;BME280;22233;42.708;23.360;2023-07-13T10:19:40;95610.50;;;36.04;34.79
36192;BME280;22233;42.708;23.360;2023-07-13T10:22:27;95602.78;;;36.13;33.92
36192;BME280;22233;42.708;23.360;2023-07-13T10:24:55;95603.03;;;36.34;33.16
36192;BME280;22233;42.708;23.360;2023-07-13T10:27:30;95603.06;;;35.82;34.29
36192;BME280;22233;42.708;23.360;2023-07-13T10:32:34;95578.97;;;36.38;33.90
36192;BME280;22233;42.708;23.360;2023-07-13T10:34:59;95575.84;;;36.36;33.19
36192;BME280;22233;42.708;23.360;2023-07-13T10:37:29;95586.25;;;36.54;29.01
36192;BME280;22233;42.708;23.360;2023-07-13T10:39:57;95584.63;;;36.38;28.57
36192;BME280;22233;42.708;23.360;2023-07-13T10:42:35;95587.97;;;36.28;28.81
36192;BME280;22233;42.708;23.360;2023-07-13T10:45:10;95573.06;;;36.51;26.49
36192;BME280;22233;42.708;23.360;2023-07-13T10:47:37;95567.13;;;36.49;26.73
36192;BME280;22233;42.708;23.360;2023-07-13T10:50:05;95556.88;;;36.52;26.59
36192;BME280;22233;42.708;23.360;2023-07-13T10:52:45;95548.97;;;36.32;28.10
36192;BME280;22233;42.708;23.360;2023-07-13T11:00:46;95533.66;;;36.14;27.44
36192;BME280;22233;42.708;23.360;2023-07-13T11:03:13;95544.47;;;36.49;26.49
36192;BME280;22233;42.708;23.360;2023-07-13T11:05:40;95546.28;;;36.62;26.63
36192;BME280;22233;42.708;23.360;2023-07-13T11:10:53;95539.72;;;36.55;26.97
36192;BME280;22233;42.708;23.360;2023-07-13T11:19:18;95523.31;;;37.23;25.43
36192;BME280;22233;42.708;23.360;2023-07-13T11:24:29;95517.44;;;36.48;25.78
36192;BME280;22233;42.708;23.360;2023-07-13T11:26:56;95529.91;;;36.42;26.31
36192;BME280;22233;42.708;23.360;2023-07-13T11:31:58;95518.78;;;36.38;26.14
36192;BME280;22233;42.708;23.360;2023-07-13T11:34:28;95514.09;;;36.59;25.65
36192;BME280;22233;42.708;23.360;2023-07-13T11:36:57;95505.25;;;36.66;26.29
36192;BME280;22233;42.708;23.360;2023-07-13T11:39:32;95496.63;;;36.61;26.46
36192;BME280;22233;42.708;23.360;2023-07-13T11:42:02;95502.38;;;36.90;25.93
36192;BME280;22233;42.708;23.360;2023-07-13T11:44:30;95499.16;;;36.58;26.35
36192;BME280;22233;42.708;23.360;2023-07-13T11:46:58;95504.59;;;36.86;26.59
36192;BME280;22233;42.708;23.360;2023-07-13T11:49:30;95472.19;;;36.48;26.65
36192;BME280;22233;42.708;23.360;2023-07-13T11:51:57;95496.25;;;37.07;26.91
36192;BME280;22233;42.708;23.360;2023-07-13T11:54:33;95493.06;;;37.29;26.18
36192;BME280;22233;42.708;23.360;2023-07-13T11:59:43;95491.31;;;37.61;26.43
36192;BME280;22233;42.708;23.360;2023-07-13T12:02:17;95477.44;;;37.18;27.15
36192;BME280;22233;42.708;23.360;2023-07-13T12:04:49;95472.81;;;37.51;27.75
36192;BME280;22233;42.708;23.360;2023-07-13T12:07:18;95482.50;;;37.14;27.36
36192;BME280;22233;42.708;23.360;2023-07-13T12:09:44;95466.69;;;37.23;27.92
36192;BME280;22233;42.708;23.360;2023-07-13T12:12:16;95479.19;;;37.75;27.13
36192;BME280;22233;42.708;23.360;2023-07-13T12:14:42;95477.34;;;37.93;26.22
36192;BME280;22233;42.708;23.360;2023-07-13T12:17:16;95459.81;;;37.74;26.58
36192;BME280;22233;42.708;23.360;2023-07-13T12:19:43;95457.22;;;37.91;27.40
36192;BME280;22233;42.708;23.360;2023-07-13T12:22:11;95434.31;;;37.74;27.22
36192;BME280;22233;42.708;23.360;2023-07-13T12:24:38;95440.97;;;37.71;26.82
36192;BME280;22233;42.708;23.360;2023-07-13T12:27:04;95446.16;;;37.72;27.56
36192;BME280;22233;42.708;23.360;2023-07-13T12:29:32;95445.91;;;37.26;27.33
36192;BME280;22233;42.708;23.360;2023-07-13T12:31:58;95443.78;;;37.71;26.84
36192;BME280;22233;42.708;23.360;2023-07-13T12:34:25;95437.34;;;37.70;25.85
36192;BME280;22233;42.708;23.360;2023-07-13T12:36:59;95438.94;;;37.42;26.07
36192;BME280;22233;42.708;23.360;2023-07-13T12:39:34;95438.09;;;37.35;27.04
36192;BME280;22233;42.708;23.360;2023-07-13T12:42:20;95434.63;;;37.46;27.10
36192;BME280;22233;42.708;23.360;2023-07-13T12:44:49;95429.97;;;37.43;26.88
36192;BME280;22233;42.708;23.360;2023-07-13T12:47:15;95419.22;;;37.47;26.64
36192;BME280;22233;42.708;23.360;2023-07-13T12:49:54;95401.66;;;37.28;26.65
36192;BME280;22233;42.708;23.360;2023-07-13T12:52:31;95426.22;;;37.67;27.35
36192;BME280;22233;42.708;23.360;2023-07-13T12:55:12;95424.97;;;37.38;26.89
36192;BME280;22233;42.708;23.360;2023-07-13T12:57:54;95427.72;;;37.47;27.42
36192;BME280;22233;42.708;23.360;2023-07-13T13:00:27;95413.75;;;37.44;26.89
36192;BME280;22233;42.708;23.360;2023-07-13T13:02:55;95407.38;;;37.49;26.41
36192;BME280;22233;42.708;23.360;2023-07-13T13:05:21;95399.25;;;37.71;26.50
36192;BME280;22233;42.708;23.360;2023-07-13T13:07:49;95411.25;;;38.02;26.25
36192;BME280;22233;42.708;23.360;2023-07-13T13:10:15;95413.28;;;38.01;25.79
36192;BME280;22233;42.708;23.360;2023-07-13T13:12:41;95407.84;;;37.97;25.34
36192;BME280;22233;42.708;23.360;2023-07-13T13:15:10;95409.38;;;38.13;25.61
36192;BME280;22233;42.708;23.360;2023-07-13T13:17:37;95390.19;;;37.88;25.53
36192;BME280;22233;42.708;23.360;2023-07-13T13:20:18;95395.03;;;38.02;25.37
36192;BME280;22233;42.708;23.360;2023-07-13T13:22:44;95377.34;;;37.72;24.66
36192;BME280;22233;42.708;23.360;2023-07-13T13:25:10;95407.06;;;37.97;24.68
36192;BME280;22233;42.708;23.360;2023-07-13T13:27:36;95396.91;;;38.26;24.58
36192;BME280;22233;42.708;23.360;2023-07-13T13:30:02;95390.88;;;38.18;24.84
36192;BME280;22233;42.708;23.360;2023-07-13T13:32:27;95387.53;;;38.40;24.83
36192;BME280;22233;42.708;23.360;2023-07-13T13:34:53;95403.28;;;38.62;24.70